createdAt,value
2023-03-30T00:01:22.330Z,22.95
2023-03-30T00:03:49.421Z,22.80
2023-03-30T00:06:17.731Z,22.98
2023-03-30T00:08:44.658Z,22.97
2023-03-30T00:11:12.412Z,22.95
2023-03-30T00:13:39.753Z,22.96
2023-03-30T00:16:08.388Z,22.90
2023-03-30T00:18:35.577Z,22.89
2023-03-30T00:21:03.461Z,22.88
2023-03-30T00:23:32.396Z,22.88
2023-03-30T00:25:59.783Z,22.91
2023-03-30T00:28:27.015Z,22.90
2023-03-30T00:30:53.837Z,22.92
2023-03-30T00:33:27.607Z,22.97
2023-03-30T00:36:00.850Z,23.00
2023-03-30T00:38:27.741Z,23.01
2023-03-30T00:40:56.950Z,23.00
2023-03-30T00:43:24.566Z,22.99
2023-03-30T00:45:51.439Z,22.97
2023-03-30T00:48:20.175Z,22.98
2023-03-30T00:50:48.955Z,22.94
2023-03-30T00:53:17.682Z,22.93
2023-03-30T00:55:46.220Z,22.92
2023-03-30T00:58:15.961Z,22.92
2023-03-30T01:00:43.688Z,22.92
2023-03-30T01:03:16.770Z,22.88
2023-03-30T01:05:44.712Z,22.85
2023-03-30T01:08:12.033Z,22.88
2023-03-30T01:10:38.908Z,22.83
2023-03-30T01:13:06.278Z,22.83
2023-03-30T01:15:36.022Z,22.84
2023-03-30T01:18:07.582Z,22.88
2023-03-30T01:20:53.273Z,22.90
2023-03-30T01:23:33.221Z,22.95
2023-03-30T01:26:23.887Z,22.98
2023-03-30T01:28:54.143Z,22.95
2023-03-30T01:31:44.701Z,22.96
2023-03-30T01:34:35.187Z,22.92
2023-03-30T01:37:15.620Z,22.89
2023-03-30T01:39:51.280Z,22.92
2023-03-30T01:42:21.448Z,22.94
2023-03-30T01:44:52.645Z,22.92
2023-03-30T01:47:22.127Z,22.89
2023-03-30T01:49:52.993Z,22.89
2023-03-30T01:52:22.139Z,22.87
2023-03-30T01:54:52.938Z,22.85
2023-03-30T01:57:21.688Z,22.82
2023-03-30T01:59:53.224Z,22.79
2023-03-30T02:02:21.430Z,22.79
2023-03-30T02:04:48.693Z,22.79
2023-03-30T02:07:17.734Z,22.64
2023-03-30T02:09:46.184Z,22.80
2023-03-30T02:12:14.427Z,22.85
2023-03-30T02:14:41.824Z,22.88
2023-03-30T02:17:11.648Z,22.91
2023-03-30T02:19:38.514Z,22.89
2023-03-30T02:22:05.548Z,22.94
2023-03-30T02:24:32.655Z,22.93
2023-03-30T02:27:00.361Z,22.91
2023-03-30T02:29:28.836Z,22.90
2023-03-30T02:31:57.637Z,22.87
2023-03-30T02:34:33.793Z,22.86
2023-03-30T02:37:06.305Z,22.86
2023-03-30T02:39:39.743Z,22.81
2023-03-30T02:42:17.957Z,22.85
2023-03-30T02:44:50.851Z,22.80
2023-03-30T02:47:22.092Z,22.75
2023-03-30T02:49:55.077Z,22.74
2023-03-30T02:52:27.067Z,22.76
2023-03-30T02:54:58.449Z,22.75
2023-03-30T02:57:29.866Z,22.75
2023-03-30T03:00:00.869Z,22.75
2023-03-30T03:02:29.638Z,22.80
2023-03-30T03:04:56.696Z,22.79
2023-03-30T03:07:25.087Z,22.85
2023-03-30T03:09:51.962Z,23.26
2023-03-30T03:12:18.793Z,23.44
2023-03-30T03:14:45.652Z,23.54
2023-03-30T03:17:14.013Z,23.63
2023-03-30T03:19:40.942Z,23.59
2023-03-30T03:22:07.763Z,23.63
2023-03-30T03:24:34.563Z,23.60
2023-03-30T03:27:01.356Z,23.57
2023-03-30T03:29:28.175Z,23.56
2023-03-30T03:31:54.965Z,23.53
2023-03-30T03:34:23.174Z,23.56
2023-03-30T03:36:50.009Z,23.61
2023-03-30T03:39:16.806Z,23.43
2023-03-30T03:41:43.643Z,23.34
2023-03-30T03:44:10.476Z,23.38
2023-03-30T03:46:37.416Z,23.35
2023-03-30T03:49:04.240Z,23.31
2023-03-30T03:51:32.437Z,23.37
2023-03-30T03:53:59.276Z,23.33
2023-03-30T03:56:26.072Z,23.30
2023-03-30T03:58:53.328Z,23.33
2023-03-30T04:01:20.306Z,23.35
2023-03-30T04:03:47.108Z,23.38
2023-03-30T04:06:13.960Z,23.45
2023-03-30T04:08:42.128Z,23.52
2023-03-30T04:11:10.379Z,23.70
2023-03-30T04:13:37.521Z,23.69
2023-03-30T04:16:04.883Z,23.59
2023-03-30T04:18:31.925Z,23.64
2023-03-30T04:20:59.237Z,23.66
2023-03-30T04:23:26.425Z,23.62
2023-03-30T04:25:54.582Z,23.57
2023-03-30T04:28:21.393Z,23.58
2023-03-30T04:30:48.204Z,23.53
2023-03-30T04:33:14.994Z,23.55
2023-03-30T04:35:41.877Z,23.57
2023-03-30T04:38:08.857Z,23.64
2023-03-30T04:40:35.673Z,23.63
2023-03-30T04:43:04.520Z,23.67
2023-03-30T04:45:31.408Z,23.62
2023-03-30T04:47:58.314Z,23.59
2023-03-30T04:50:25.377Z,23.55
2023-03-30T04:52:52.202Z,23.56
2023-03-30T04:55:19.013Z,23.52
2023-03-30T04:57:45.859Z,23.52
2023-03-30T05:00:14.956Z,23.52
2023-03-30T05:02:41.837Z,23.51
2023-03-30T05:05:09.178Z,23.52
2023-03-30T05:07:35.996Z,23.52
2023-03-30T05:10:02.887Z,23.49
2023-03-30T05:12:29.766Z,23.45
2023-03-30T05:14:56.620Z,23.41
2023-03-30T05:17:24.849Z,23.32
2023-03-30T05:19:51.826Z,23.29
2023-03-30T05:22:18.662Z,23.35
2023-03-30T05:24:45.536Z,23.39
2023-03-30T05:27:12.767Z,23.43
2023-03-30T05:29:39.551Z,23.46
2023-03-30T05:32:06.439Z,23.52
2023-03-30T05:34:34.678Z,23.49
2023-03-30T05:37:01.491Z,23.53
2023-03-30T05:39:28.353Z,23.49
2023-03-30T05:41:55.266Z,23.48
2023-03-30T05:44:22.542Z,23.49
2023-03-30T05:46:49.762Z,23.48
2023-03-30T05:49:16.783Z,23.48
2023-03-30T05:51:44.986Z,23.45
2023-03-30T05:54:12.348Z,23.44
2023-03-30T05:56:39.525Z,23.48
2023-03-30T05:59:06.691Z,23.50
2023-03-30T06:01:33.501Z,23.32
2023-03-30T06:04:00.459Z,23.11
2023-03-30T06:06:27.324Z,22.83
2023-03-30T06:08:55.594Z,22.83
2023-03-30T06:11:22.472Z,22.97
2023-03-30T06:13:49.289Z,23.00
2023-03-30T06:16:16.134Z,23.12
2023-03-30T06:18:43.054Z,23.17
2023-03-30T06:21:09.920Z,23.13
2023-03-30T06:23:36.789Z,23.20
2023-03-30T06:26:05.347Z,23.24
2023-03-30T06:28:32.158Z,23.43
2023-03-30T06:30:59.093Z,23.70
2023-03-30T06:33:25.944Z,24.00
2023-03-30T06:35:53.156Z,24.12
2023-03-30T06:38:20.464Z,24.17
2023-03-30T06:40:47.610Z,24.19
2023-03-30T06:43:17.150Z,24.17
2023-03-30T06:45:49.000Z,24.10
2023-03-30T06:48:15.810Z,24.12
2023-03-30T06:50:44.933Z,24.11
2023-03-30T06:53:11.775Z,24.06
2023-03-30T06:55:38.590Z,23.99
2023-03-30T06:58:05.383Z,23.95
2023-03-30T07:00:33.666Z,24.03
2023-03-30T07:03:00.701Z,24.09
2023-03-30T07:05:27.704Z,24.00
2023-03-30T07:09:28.032Z,24.00
2023-03-30T07:11:56.500Z,24.00
2023-03-30T07:14:23.513Z,23.99
2023-03-30T07:16:50.556Z,23.92
2023-03-30T07:19:17.381Z,23.89
2023-03-30T07:21:44.322Z,23.88
2023-03-30T07:24:11.160Z,23.85
2023-03-30T07:26:39.338Z,23.82
2023-03-30T07:29:06.157Z,23.76
2023-03-30T07:31:33.186Z,23.72
2023-03-30T07:34:00.130Z,23.63
2023-03-30T07:36:26.954Z,23.63
2023-03-30T07:38:53.779Z,23.71
2023-03-30T07:41:20.789Z,23.68
2023-03-30T07:43:49.031Z,23.62
2023-03-30T07:46:15.947Z,23.66
2023-03-30T07:48:42.810Z,23.72
2023-03-30T07:51:10.934Z,23.74
2023-03-30T07:53:38.176Z,23.74
2023-03-30T07:56:05.430Z,23.72
2023-03-30T07:58:32.361Z,23.71
2023-03-30T08:01:00.733Z,23.73
2023-03-30T08:03:27.867Z,23.70
2023-03-30T08:05:55.322Z,23.68
2023-03-30T08:08:22.167Z,23.67
2023-03-30T08:10:49.177Z,23.66
2023-03-30T08:13:16.000Z,23.63
2023-03-30T08:15:42.878Z,23.59
2023-03-30T08:18:11.153Z,23.52
2023-03-30T08:20:38.524Z,23.45
2023-03-30T08:23:05.654Z,23.45
2023-03-30T08:25:32.896Z,23.44
2023-03-30T08:27:59.973Z,23.43
2023-03-30T08:30:27.128Z,23.46
2023-03-30T08:32:53.968Z,23.46
2023-03-30T08:35:22.281Z,23.50
2023-03-30T08:37:49.324Z,23.46
2023-03-30T08:40:18.644Z,23.54
2023-03-30T08:42:54.362Z,23.57
2023-03-30T08:45:21.179Z,23.52
2023-03-30T08:47:49.509Z,23.52
2023-03-30T08:50:17.222Z,23.46
2023-03-30T08:52:45.589Z,23.47
2023-03-30T08:55:19.295Z,23.47
2023-03-30T08:57:49.406Z,23.49
2023-03-30T09:00:21.971Z,23.45
2023-03-30T09:02:51.570Z,23.44
2023-03-30T09:05:21.397Z,23.49
2023-03-30T09:07:55.341Z,23.47
2023-03-30T09:10:22.935Z,23.41
2023-03-30T09:12:51.604Z,23.38
2023-03-30T09:15:19.917Z,23.43
2023-03-30T09:17:48.825Z,23.43
2023-03-30T09:20:19.020Z,23.44
2023-03-30T09:22:46.749Z,23.45
2023-03-30T09:25:16.431Z,23.49
2023-03-30T09:27:47.393Z,23.52
2023-03-30T09:30:16.987Z,23.53
2023-03-30T09:32:46.379Z,23.53
2023-03-30T09:35:14.728Z,23.48
2023-03-30T09:37:41.649Z,23.49
2023-03-30T09:40:19.361Z,23.50
2023-03-30T09:42:50.246Z,23.44
2023-03-30T09:45:19.636Z,23.47
2023-03-30T09:47:46.459Z,23.44
2023-03-30T09:50:17.344Z,23.38
2023-03-30T09:52:54.794Z,23.39
2023-03-30T09:55:27.535Z,23.41
2023-03-30T09:57:54.342Z,23.33
2023-03-30T10:00:23.628Z,23.35
2023-03-30T10:02:54.864Z,23.38
2023-03-30T10:05:21.860Z,23.37
2023-03-30T10:07:53.497Z,23.37
2023-03-30T10:10:31.350Z,23.39
2023-03-30T10:13:02.340Z,23.38
2023-03-30T10:15:29.614Z,23.45
2023-03-30T10:18:01.009Z,23.47
2023-03-30T10:20:29.164Z,23.53
2023-03-30T10:22:56.825Z,23.57
2023-03-30T10:25:26.519Z,23.67
2023-03-30T10:27:56.298Z,23.68
2023-03-30T10:30:24.495Z,23.72
2023-03-30T10:32:52.214Z,23.70
2023-03-30T10:35:20.734Z,23.77
2023-03-30T10:37:47.984Z,23.78
2023-03-30T10:40:17.914Z,23.82
2023-03-30T10:42:45.485Z,23.85
2023-03-30T10:45:19.842Z,23.82
2023-03-30T10:47:54.549Z,23.79
2023-03-30T10:50:28.862Z,23.82
2023-03-30T10:53:04.243Z,23.74
2023-03-30T10:55:36.153Z,23.58
2023-03-30T10:58:07.281Z,23.49
2023-03-30T11:00:43.906Z,23.54
2023-03-30T11:03:13.687Z,23.56
2023-03-30T11:05:42.757Z,23.59
2023-03-30T11:08:12.144Z,23.57
2023-03-30T11:10:42.771Z,23.54
2023-03-30T11:13:13.730Z,23.63
2023-03-30T11:15:46.147Z,23.58
2023-03-30T11:18:17.187Z,23.56
2023-03-30T11:20:47.965Z,23.52
2023-03-30T11:23:18.025Z,23.54
2023-03-30T11:25:58.516Z,23.54
2023-03-30T11:28:36.816Z,23.50
2023-03-30T11:31:13.216Z,23.46
2023-03-30T11:33:45.629Z,23.43
2023-03-30T11:36:15.912Z,23.42
2023-03-30T11:38:44.792Z,23.38
2023-03-30T11:41:13.349Z,23.44
2023-03-30T11:43:40.962Z,23.50
2023-03-30T11:46:13.815Z,23.62
2023-03-30T11:48:53.427Z,23.71
2023-03-30T11:51:25.853Z,23.94
2023-03-30T11:53:57.404Z,24.02
2023-03-30T11:56:28.304Z,24.06
2023-03-30T11:59:00.315Z,24.10
2023-03-30T12:01:36.807Z,24.09
2023-03-30T12:04:06.663Z,24.10
2023-03-30T12:06:34.529Z,24.05
2023-03-30T12:09:06.208Z,23.97
2023-03-30T12:11:37.929Z,23.94
2023-03-30T12:14:12.360Z,23.98
2023-03-30T12:16:42.413Z,23.92
2023-03-30T12:19:13.367Z,23.98
2023-03-30T12:21:43.960Z,24.01
2023-03-30T12:24:15.181Z,23.92
2023-03-30T12:26:46.919Z,23.78
2023-03-30T12:32:07.111Z,23.74
2023-03-30T12:34:34.914Z,23.76
2023-03-30T12:37:04.431Z,23.77
2023-03-30T12:39:33.994Z,23.82
2023-03-30T12:42:02.344Z,23.83
2023-03-30T12:44:52.624Z,23.79
2023-03-30T12:47:29.229Z,23.76
2023-03-30T12:50:13.348Z,23.74
2023-03-30T12:52:47.974Z,23.76
2023-03-30T12:55:22.934Z,23.74
2023-03-30T12:58:00.309Z,23.75
2023-03-30T13:00:50.973Z,23.71
2023-03-30T13:03:33.350Z,23.63
2023-03-30T13:06:01.824Z,23.65
2023-03-30T13:08:31.574Z,23.67
2023-03-30T13:11:22.245Z,23.64
2023-03-30T13:13:56.249Z,23.63
2023-03-30T13:16:41.751Z,23.61
2023-03-30T13:19:20.102Z,23.64
2023-03-30T13:21:47.463Z,23.65
2023-03-30T13:24:35.036Z,23.66
2023-03-30T13:27:21.483Z,23.67
2023-03-30T13:29:53.566Z,23.69
2023-03-30T13:32:23.890Z,23.74
2023-03-30T13:35:06.773Z,23.70
2023-03-30T13:37:55.738Z,23.66
2023-03-30T13:40:37.994Z,23.68
2023-03-30T13:43:12.092Z,23.67
2023-03-30T13:45:45.964Z,23.65
2023-03-30T13:48:19.811Z,23.66
2023-03-30T13:50:51.910Z,23.62
2023-03-30T13:53:18.912Z,23.69
2023-03-30T13:55:48.192Z,23.66
2023-03-30T13:58:17.022Z,23.72
2023-03-30T14:00:47.391Z,23.66
2023-03-30T14:03:29.061Z,23.68
2023-03-30T14:05:59.840Z,23.61
2023-03-30T14:08:26.717Z,22.84
2023-03-30T14:10:54.668Z,22.35
2023-03-30T14:13:21.682Z,22.10
2023-03-30T14:15:49.513Z,21.87
2023-03-30T14:18:21.393Z,21.72
2023-03-30T14:20:49.974Z,21.83
2023-03-30T14:23:20.376Z,21.61
2023-03-30T14:25:47.224Z,21.60
2023-03-30T14:28:15.113Z,21.47
2023-03-30T14:30:48.652Z,21.31
2023-03-30T14:33:15.688Z,21.69
2023-03-30T14:35:44.167Z,21.95
2023-03-30T14:38:17.162Z,22.26
2023-03-30T14:40:45.990Z,22.38
2023-03-30T14:43:13.850Z,22.42
2023-03-30T14:45:40.878Z,22.53
2023-03-30T14:48:07.920Z,22.59
2023-03-30T14:50:36.407Z,22.67
2023-03-30T14:53:03.454Z,22.93
2023-03-30T14:55:30.801Z,23.27
2023-03-30T14:57:59.028Z,23.61
2023-03-30T15:00:25.928Z,23.67
2023-03-30T15:02:54.031Z,23.74
2023-03-30T15:05:22.484Z,23.57
2023-03-30T15:07:49.992Z,23.73
2023-03-30T15:10:27.270Z,23.74
2023-03-30T15:12:55.518Z,23.75
2023-03-30T15:15:24.709Z,23.77
2023-03-30T15:17:51.823Z,23.76
2023-03-30T15:20:19.236Z,23.84
2023-03-30T15:22:47.713Z,23.86
2023-03-30T15:25:16.365Z,23.85
2023-03-30T15:27:45.315Z,23.83
2023-03-30T15:30:15.714Z,23.82
2023-03-30T15:32:43.963Z,23.89
2023-03-30T15:35:18.826Z,23.90
2023-03-30T15:37:51.865Z,23.89
2023-03-30T15:40:27.100Z,23.67
2023-03-30T15:43:08.784Z,23.55
2023-03-30T15:45:35.695Z,23.65
2023-03-30T15:48:04.446Z,23.65
2023-03-30T15:50:35.262Z,23.63
2023-03-30T15:53:02.280Z,23.61
2023-03-30T15:55:30.323Z,23.62
2023-03-30T15:57:57.172Z,23.69
2023-03-30T16:00:27.060Z,23.78
2023-03-30T16:02:55.071Z,23.79
2023-03-30T16:05:24.298Z,23.85
2023-03-30T16:07:51.233Z,23.94
2023-03-30T16:10:19.999Z,23.90
2023-03-30T16:12:47.766Z,23.88
2023-03-30T16:15:15.532Z,23.95
2023-03-30T16:17:42.715Z,23.94
2023-03-30T16:20:14.137Z,23.93
2023-03-30T16:22:42.413Z,23.88
2023-03-30T16:25:09.509Z,23.89
2023-03-30T16:27:36.585Z,23.88
2023-03-30T16:30:13.181Z,23.78
2023-03-30T16:32:40.087Z,23.77
2023-03-30T16:35:07.227Z,23.74
2023-03-30T16:37:34.083Z,23.73
2023-03-30T16:40:02.285Z,23.73
2023-03-30T16:42:29.166Z,23.86
2023-03-30T16:44:55.997Z,23.75
2023-03-30T16:47:22.887Z,23.91
2023-03-30T16:49:49.741Z,23.92
2023-03-30T16:52:16.591Z,23.90
2023-03-30T16:54:43.418Z,23.92
2023-03-30T16:57:11.648Z,23.94
2023-03-30T16:59:38.519Z,23.94
2023-03-30T17:02:05.812Z,23.91
2023-03-30T17:04:32.631Z,23.97
2023-03-30T17:06:59.523Z,23.99
2023-03-30T17:09:26.396Z,23.97
2023-03-30T17:11:53.202Z,23.96
2023-03-30T17:14:21.425Z,24.02
2023-03-30T17:16:48.299Z,24.01
2023-03-30T17:19:15.282Z,23.94
2023-03-30T17:21:42.112Z,23.96
2023-03-30T17:24:09.000Z,24.00
2023-03-30T17:26:35.895Z,24.00
2023-03-30T17:29:02.751Z,23.92
2023-03-30T17:31:30.972Z,23.98
2023-03-30T17:33:57.817Z,23.93
2023-03-30T17:36:25.562Z,23.94
2023-03-30T17:38:52.562Z,23.98
2023-03-30T17:41:20.154Z,24.05
2023-03-30T17:43:47.185Z,24.01
2023-03-30T17:46:15.165Z,24.04
2023-03-30T17:48:43.381Z,24.06
2023-03-30T17:51:10.480Z,24.03
2023-03-30T17:53:37.320Z,24.07
2023-03-30T17:56:04.329Z,24.06
2023-03-30T17:58:32.282Z,24.01
2023-03-30T18:00:59.783Z,24.14
2023-03-30T18:03:26.638Z,24.13
2023-03-30T18:05:55.114Z,24.06
2023-03-30T18:08:23.050Z,24.04
2023-03-30T18:10:50.248Z,24.01
2023-03-30T18:13:17.739Z,24.02
2023-03-30T18:15:45.907Z,24.05
2023-03-30T18:18:13.204Z,24.07
2023-03-30T18:20:40.865Z,24.03
2023-03-30T18:23:09.253Z,24.05
2023-03-30T18:25:36.229Z,24.02
2023-03-30T18:28:03.326Z,24.02
2023-03-30T18:30:31.315Z,24.06
2023-03-30T18:32:58.612Z,24.06
2023-03-30T18:35:26.623Z,24.07
2023-03-30T18:37:53.785Z,24.17
2023-03-30T18:40:23.205Z,24.13
2023-03-30T18:42:50.102Z,24.15
2023-03-30T18:45:17.881Z,24.13
2023-03-30T18:47:45.025Z,24.05
2023-03-30T18:50:12.981Z,24.01
2023-03-30T18:52:39.941Z,23.96
2023-03-30T18:55:07.220Z,24.00
2023-03-30T18:57:35.412Z,23.86
2023-03-30T19:00:02.400Z,23.74
2023-03-30T19:02:29.352Z,23.77
2023-03-30T19:04:56.211Z,23.75
2023-03-30T19:07:24.562Z,23.73
2023-03-30T19:09:51.454Z,23.74
2023-03-30T19:12:18.425Z,23.77
2023-03-30T19:14:46.586Z,23.78
2023-03-30T19:17:13.391Z,23.73
2023-03-30T19:19:40.370Z,23.75
2023-03-30T19:22:07.269Z,23.76
2023-03-30T19:24:34.223Z,23.75
2023-03-30T19:27:01.069Z,23.75
2023-03-30T19:29:28.053Z,23.77
2023-03-30T19:31:56.363Z,23.71
2023-03-30T19:34:23.308Z,23.69
2023-03-30T19:36:50.119Z,23.65
2023-03-30T19:39:16.919Z,23.69
2023-03-30T19:41:43.765Z,23.70
2023-03-30T19:44:10.562Z,23.72
2023-03-30T19:46:37.396Z,23.63
2023-03-30T19:49:05.601Z,23.60
2023-03-30T19:51:33.534Z,23.65
2023-03-30T19:54:00.338Z,23.68
2023-03-30T19:56:27.194Z,23.69
2023-03-30T19:58:53.982Z,23.69
2023-03-30T20:01:20.814Z,23.73
2023-03-30T20:03:47.753Z,23.75
2023-03-30T20:06:15.934Z,23.72
2023-03-30T20:08:42.732Z,23.65
2023-03-30T20:11:10.773Z,23.63
2023-03-30T20:13:37.631Z,23.58
2023-03-30T20:16:04.535Z,23.58
2023-03-30T20:18:31.450Z,23.18
2023-03-30T20:20:58.260Z,23.53
2023-03-30T20:23:26.414Z,23.53
2023-03-30T20:25:53.307Z,23.55
2023-03-30T20:28:20.151Z,23.55
2023-03-30T20:30:47.017Z,23.58
2023-03-30T20:33:14.016Z,23.60
2023-03-30T20:35:41.147Z,23.50
2023-03-30T20:38:07.962Z,23.48
2023-03-30T20:40:36.226Z,23.53
2023-03-30T20:43:03.340Z,23.56
2023-03-30T20:45:31.179Z,23.58
2023-03-30T20:47:58.363Z,23.61
2023-03-30T20:50:25.248Z,23.64
2023-03-30T20:52:52.092Z,23.66
2023-03-30T20:55:18.980Z,23.68
2023-03-30T20:57:47.366Z,23.61
2023-03-30T21:00:15.014Z,23.43
2023-03-30T21:02:41.888Z,23.52
2023-03-30T21:05:08.865Z,23.49
2023-03-30T21:07:35.864Z,23.49
2023-03-30T21:10:02.720Z,23.47
2023-03-30T21:12:29.584Z,23.31
2023-03-30T21:14:57.756Z,23.42
2023-03-30T21:17:24.641Z,23.43
2023-03-30T21:19:51.439Z,23.44
2023-03-30T21:22:18.234Z,23.47
2023-03-30T21:24:45.087Z,23.39
2023-03-30T21:27:11.886Z,23.41
2023-03-30T21:29:38.682Z,23.44
2023-03-30T21:32:06.896Z,23.49
2023-03-30T21:34:33.690Z,23.50
2023-03-30T21:37:00.614Z,23.51
2023-03-30T21:39:27.619Z,23.51
2023-03-30T21:41:54.437Z,23.56
2023-03-30T21:44:21.226Z,23.59
2023-03-30T21:46:48.098Z,23.58
2023-03-30T21:49:16.268Z,23.55
2023-03-30T21:51:43.098Z,23.52
2023-03-30T21:54:11.972Z,23.49
2023-03-30T21:56:38.788Z,23.50
2023-03-30T21:59:05.586Z,23.52
2023-03-30T22:01:32.734Z,23.45
2023-03-30T22:03:59.675Z,23.39
2023-03-30T22:06:28.034Z,23.44
2023-03-30T22:08:54.852Z,23.45
2023-03-30T22:11:22.586Z,23.38
2023-03-30T22:13:49.799Z,23.43
2023-03-30T22:16:17.746Z,23.38
2023-03-30T22:18:44.912Z,23.41
2023-03-30T22:21:13.163Z,23.42
2023-03-30T22:23:41.392Z,23.44
2023-03-30T22:26:08.623Z,23.44
2023-03-30T22:28:35.710Z,23.46
2023-03-30T22:31:05.637Z,23.48
2023-03-30T22:33:32.543Z,23.52
2023-03-30T22:35:59.358Z,23.52
2023-03-30T22:38:26.235Z,23.50
2023-03-30T22:41:03.712Z,23.44
2023-03-30T22:43:32.628Z,23.47
2023-03-30T22:45:59.460Z,23.48
2023-03-30T22:48:26.291Z,23.38
2023-03-30T22:50:53.141Z,23.41
2023-03-30T22:53:19.952Z,23.41
2023-03-30T22:55:46.751Z,23.42
2023-03-30T22:58:15.617Z,23.38
2023-03-30T23:00:42.508Z,23.38
2023-03-30T23:03:09.408Z,23.35
2023-03-30T23:05:36.350Z,23.32
2023-03-30T23:08:03.291Z,23.37
2023-03-30T23:10:30.212Z,23.35
2023-03-30T23:12:57.021Z,23.38
2023-03-30T23:15:25.178Z,23.43
2023-03-30T23:17:52.034Z,23.39
2023-03-30T23:20:19.288Z,23.40
2023-03-30T23:22:48.344Z,23.44
2023-03-30T23:25:15.350Z,23.48
2023-03-30T23:27:42.173Z,23.46
2023-03-30T23:30:09.481Z,23.44
2023-03-30T23:32:37.697Z,23.43
2023-03-30T23:35:04.926Z,23.43
2023-03-30T23:37:31.804Z,23.39
2023-03-30T23:39:58.808Z,23.38
2023-03-30T23:42:25.840Z,23.34
2023-03-30T23:44:52.642Z,23.36
2023-03-30T23:47:19.455Z,23.34
2023-03-30T23:49:47.639Z,23.33
2023-03-30T23:52:14.474Z,23.35
2023-03-30T23:54:41.432Z,23.32
2023-03-30T23:57:08.876Z,23.32
2023-03-30T23:59:36.360Z,23.31
